地図

経路データ

SID SEASON NUMBER BASIN SUBBASIN NAME ISO_TIME NATURE LAT LON WMO_WIND WMO_PRES WMO_AGENCY TRACK_TYPE DIST2LAND LANDFALL IFLAG USA_AGENCY USA_ATCF_ID USA_LAT USA_LON USA_RECORD USA_STATUS USA_WIND USA_PRES USA_SSHS USA_R34_NE USA_R34_SE USA_R34_SW USA_R34_NW USA_R50_NE USA_R50_SE USA_R50_SW USA_R50_NW USA_R64_NE USA_R64_SE USA_R64_SW USA_R64_NW USA_POCI USA_ROCI USA_RMW USA_EYE TOKYO_LAT TOKYO_LON TOKYO_GRADE TOKYO_WIND TOKYO_PRES TOKYO_R50_DIR TOKYO_R50_LONG TOKYO_R50_SHORT TOKYO_R30_DIR TOKYO_R30_LONG TOKYO_R30_SHORT TOKYO_LAND CMA_LAT CMA_LON CMA_CAT CMA_WIND CMA_PRES HKO_LAT HKO_LON HKO_CAT HKO_WIND HKO_PRES NEWDELHI_LAT NEWDELHI_LON NEWDELHI_GRADE NEWDELHI_WIND NEWDELHI_PRES NEWDELHI_CI NEWDELHI_DP NEWDELHI_POCI REUNION_LAT REUNION_LON REUNION_TYPE REUNION_WIND REUNION_PRES REUNION_TNUM REUNION_CI REUNION_RMW REUNION_R34_NE REUNION_R34_SE REUNION_R34_SW REUNION_R34_NW REUNION_R50_NE REUNION_R50_SE REUNION_R50_SW REUNION_R50_NW REUNION_R64_NE REUNION_R64_SE REUNION_R64_SW REUNION_R64_NW BOM_LAT BOM_LON BOM_TYPE BOM_WIND BOM_PRES BOM_TNUM BOM_CI BOM_RMW BOM_R34_NE BOM_R34_SE BOM_R34_SW BOM_R34_NW BOM_R50_NE BOM_R50_SE BOM_R50_SW BOM_R50_NW BOM_R64_NE BOM_R64_SE BOM_R64_SW BOM_R64_NW BOM_ROCI BOM_POCI BOM_EYE BOM_POS_METHOD BOM_PRES_METHOD NADI_LAT NADI_LON NADI_CAT NADI_WIND NADI_PRES WELLINGTON_LAT WELLINGTON_LON WELLINGTON_WIND WELLINGTON_PRES DS824_LAT DS824_LON DS824_STAGE DS824_WIND DS824_PRES TD9636_LAT TD9636_LON TD9636_STAGE TD9636_WIND TD9636_PRES TD9635_LAT TD9635_LON TD9635_WIND TD9635_PRES TD9635_ROCI NEUMANN_LAT NEUMANN_LON NEUMANN_CLASS NEUMANN_WIND NEUMANN_PRES MLC_LAT MLC_LON MLC_CLASS MLC_WIND MLC_PRES USA_GUST BOM_GUST BOM_GUST_PER REUNION_GUST REUNION_GUST_PER USA_SEAHGT USA_SEARAD_NE USA_SEARAD_SE USA_SEARAD_SW USA_SEARAD_NW STORM_SPEED STORM_DIR
1990309N08167 1990 111 WP MM PAGE 1990-11-05 06:00:00 NR 8.00000 167.000 main 1962 1958 O_____________ jtwc_wp WP291990 8.00000 167.000 15 -1 4 304
1990309N08167 1990 111 WP MM PAGE 1990-11-05 09:00:00 NR 8.10001 166.853 main 1968 1964 P_____________ WP291990 8.10001 166.853 15 -1 4 304
1990309N08167 1990 111 WP MM PAGE 1990-11-05 12:00:00 NR 8.20000 166.700 main 1971 1968 O_____________ jtwc_wp WP291990 8.20000 166.700 15 -1 4 303
1990309N08167 1990 111 WP MM PAGE 1990-11-05 15:00:00 NR 8.30000 166.542 main 1975 1975 P_____________ WP291990 8.30000 166.542 15 -1 4 304
1990309N08167 1990 111 WP MM PAGE 1990-11-05 18:00:00 NR 8.40000 166.400 main 1982 1978 O_____________ jtwc_wp WP291990 8.40000 166.400 15 -1 3 309
1990309N08167 1990 111 WP MM PAGE 1990-11-05 21:00:00 NR 8.49999 166.292 main 1989 1986 P_____________ WP291990 8.49999 166.292 15 -1 3 315
1990309N08167 1990 111 WP MM PAGE 1990-11-06 00:00:00 NR 8.60000 166.200 main 1996 1996 O_____________ jtwc_wp WP291990 8.60000 166.200 15 -1 3 316
1990309N08167 1990 111 WP MM PAGE 1990-11-06 03:00:00 NR 8.70000 166.100 main 2002 1997 P_____________ WP291990 8.70000 166.100 17 -1 3 315
1990309N08167 1990 111 WP MM PAGE 1990-11-06 06:00:00 NR 8.80000 166.000 main 2008 2003 O_____________ jtwc_wp WP291990 8.80000 166.000 20 -1 3 315
1990309N08167 1990 111 WP MM PAGE 1990-11-06 09:00:00 NR 8.90000 165.900 main 2013 2013 P_____________ WP291990 8.90000 165.900 20 -1 3 315
1990309N08167 1990 111 WP MM PAGE 1990-11-06 12:00:00 NR 9.00000 165.800 main 2019 2019 O_____________ jtwc_wp WP291990 9.00000 165.800 20 -1 3 315
1990309N08167 1990 111 WP MM PAGE 1990-11-06 15:00:00 NR 9.10000 165.700 main 2023 2023 P_____________ WP291990 9.10000 165.700 20 -1 3 315
1990309N08167 1990 111 WP MM PAGE 1990-11-06 18:00:00 NR 9.20000 165.600 main 2026 2026 O_____________ jtwc_wp WP291990 9.20000 165.600 20 -1 3 315
1990309N08167 1990 111 WP MM PAGE 1990-11-06 21:00:00 NR 9.30000 165.500 main 2029 2023 P_____________ WP291990 9.30000 165.500 20 -1 3 315
1990309N08167 1990 111 WP MM PAGE 1990-11-07 00:00:00 NR 9.40000 165.400 main 2032 2032 O_____________ jtwc_wp WP291990 9.40000 165.400 20 -1 3 316
1990309N08167 1990 111 WP MM PAGE 1990-11-07 03:00:00 NR 9.50750 165.300 main 2035 2035 P_____________ WP291990 9.50750 165.300 20 -1 3 315
1990309N08167 1990 111 WP MM PAGE 1990-11-07 06:00:00 NR 9.60000 165.200 main 2038 2032 O_____________ jtwc_wp WP291990 9.60000 165.200 20 -1 2 307
1990309N08167 1990 111 WP MM PAGE 1990-11-07 09:00:00 NR 9.65750 165.100 main 2041 2035 P_____________ WP291990 9.65750 165.100 20 -1 2 297
1990309N08167 1990 111 WP MM PAGE 1990-11-07 12:00:00 NR 9.70000 165.000 main 2035 2029 O_____________ jtwc_wp WP291990 9.70000 165.000 20 -1 2 295
1990309N08167 1990 111 WP MM PAGE 1990-11-07 15:00:00 NR 9.75000 164.900 main 2038 2029 P_____________ WP291990 9.75000 164.900 20 -1 2 297
1990309N08167 1990 111 WP MM PAGE 1990-11-07 18:00:00 NR 9.80000 164.800 main 2031 2024 O_____________ jtwc_wp WP291990 9.80000 164.800 20 -1 2 297
1990309N08167 1990 111 WP MM PAGE 1990-11-07 21:00:00 NR 9.85000 164.700 main 2032 2024 P_____________ WP291990 9.85000 164.700 20 -1 2 297
1990309N08167 1990 111 WP MM PAGE 1990-11-08 00:00:00 NR 9.90000 164.600 main 2025 2018 O_____________ jtwc_wp WP291990 9.90000 164.600 20 -1 2 295
1990309N08167 1990 111 WP MM PAGE 1990-11-08 03:00:00 NR 9.95000 164.485 main 2026 2019 P_____________ WP291990 9.95000 164.485 20 -1 2 297
1990309N08167 1990 111 WP MM PAGE 1990-11-08 06:00:00 NR 10.0000 164.400 main 2019 2019 O_____________ jtwc_wp WP291990 10.0000 164.400 20 -1 1 327
1990309N08167 1990 111 WP MM PAGE 1990-11-08 09:00:00 NR 10.0500 164.415 main 2019 2019 P_____________ WP291990 10.0500 164.415 20 -1 1 0
1990309N08167 1990 111 WP MM PAGE 1990-11-08 12:00:00 NR 10.1000 164.400 main 2028 2014 O_____________ jtwc_wp WP291990 10.1000 164.400 20 -1 2 297
1990309N08167 1990 111 WP MM PAGE 1990-11-08 15:00:00 NR 10.1500 164.215 main 2023 2009 P_____________ WP291990 10.1500 164.215 20 -1 4 284
1990309N08167 1990 111 WP MM PAGE 1990-11-08 18:00:00 NR 10.2000 164.000 main 2009 2002 O_____________ jtwc_wp WP291990 10.2000 164.000 20 -1 3 287
1990309N08167 1990 111 WP MM PAGE 1990-11-08 21:00:00 NR 10.2500 163.885 main 2002 2002 P_____________ WP291990 10.2500 163.885 20 -1 2 297
1990309N08167 1990 111 WP MM PAGE 1990-11-09 00:00:00 NR 10.3000 163.800 main 2004 1997 O_____________ jtwc_wp WP291990 10.3000 163.800 20 -1 2 299
1990309N08167 1990 111 WP MM PAGE 1990-11-09 03:00:00 NR 10.3500 163.700 main 2006 1997 P_____________ WP291990 10.3500 163.700 20 -1 2 297
1990309N08167 1990 111 WP MM PAGE 1990-11-09 06:00:00 NR 10.4000 163.600 main 2000 1993 O_____________ jtwc_wp WP291990 10.4000 163.600 20 -1 2 297
1990309N08167 1990 111 WP MM PAGE 1990-11-09 09:00:00 NR 10.4500 163.500 main 2002 1993 P_____________ WP291990 10.4500 163.500 20 -1 2 297
1990309N08167 1990 111 WP MM PAGE 1990-11-09 12:00:00 NR 10.5000 163.400 main 1995 1989 O_____________ jtwc_wp WP291990 10.5000 163.400 20 -1 2 297
1990309N08167 1990 111 WP MM PAGE 1990-11-09 15:00:00 NR 10.5500 163.300 main 1989 1989 P_____________ WP291990 10.5500 163.300 20 -1 2 297
1990309N08167 1990 111 WP MM PAGE 1990-11-09 18:00:00 NR 10.6000 163.200 main 1991 1984 O_____________ jtwc_wp WP291990 10.6000 163.200 20 -1 2 297
1990309N08167 1990 111 WP MM PAGE 1990-11-09 21:00:00 NR 10.6500 163.100 main 1984 1984 P_____________ WP291990 10.6500 163.100 20 -1 2 297
1990309N08167 1990 111 WP MM PAGE 1990-11-10 00:00:00 NR 10.7000 163.000 main 1986 1979 O_____________ jtwc_wp WP291990 10.7000 163.000 20 -1 2 297
1990309N08167 1990 111 WP MM PAGE 1990-11-10 03:00:00 NR 10.7500 162.900 main 1988 1979 P_____________ WP291990 10.7500 162.900 20 -1 2 297
1990309N08167 1990 111 WP MM PAGE 1990-11-10 06:00:00 NR 10.8000 162.800 main 1981 1975 O_____________ jtwc_wp WP291990 10.8000 162.800 20 -1 2 297
1990309N08167 1990 111 WP MM PAGE 1990-11-10 09:00:00 NR 10.8500 162.700 main 1984 1975 P_____________ WP291990 10.8500 162.700 20 -1 2 297
1990309N08167 1990 111 WP MM PAGE 1990-11-10 12:00:00 NR 10.9000 162.600 main 1977 1970 O_____________ jtwc_wp WP291990 10.9000 162.600 20 -1 2 297
1990309N08167 1990 111 WP MM PAGE 1990-11-10 15:00:00 NR 10.9500 162.500 main 1979 1970 P_____________ WP291990 10.9500 162.500 20 -1 2 297
1990309N08167 1990 111 WP MM PAGE 1990-11-10 18:00:00 NR 11.0000 162.400 main 1973 1966 O_____________ jtwc_wp WP291990 11.0000 162.400 20 -1 2 299
1990309N08167 1990 111 WP MM PAGE 1990-11-10 21:00:00 NR 11.0575 162.300 main 1976 1969 P_____________ WP291990 11.0575 162.300 20 -1 2 297
1990309N08167 1990 111 WP MM PAGE 1990-11-11 00:00:00 NR 11.1000 162.200 main 1969 1963 O_____________ jtwc_wp WP291990 11.1000 162.200 20 -1 2 284
1990309N08167 1990 111 WP MM PAGE 1990-11-11 03:00:00 NR 11.1075 162.100 main 1963 1957 P_____________ WP291990 11.1075 162.100 20 -1 2 270
1990309N08167 1990 111 WP MM PAGE 1990-11-11 06:00:00 NR 11.1000 162.000 main 1957 1950 O_____________ jtwc_wp WP291990 11.1000 162.000 20 -1 2 268
1990309N08167 1990 111 WP MM PAGE 1990-11-11 09:00:00 NR 11.1000 161.908 main 1950 1944 P_____________ WP291990 11.1000 161.908 20 -1 2 270
1990309N08167 1990 111 WP MM PAGE 1990-11-11 12:00:00 NR 11.1000 161.800 main 1944 1938 O_____________ jtwc_wp WP291990 11.1000 161.800 20 -1 2 270
1990309N08167 1990 111 WP MM PAGE 1990-11-11 15:00:00 NR 11.1000 161.665 main 1938 1926 P_____________ WP291990 11.1000 161.665 20 -1 3 270
1990309N08167 1990 111 WP MM PAGE 1990-11-11 18:00:00 NR 11.1000 161.500 main 1926 1914 O_____________ jtwc_wp WP291990 11.1000 161.500 20 -1 4 269
1990309N08167 1990 111 WP MM PAGE 1990-11-11 21:00:00 NR 11.0925 161.307 main 1914 1902 P_____________ WP291990 11.0925 161.307 20 -1 4 270
1990309N08167 1990 111 WP MM PAGE 1990-11-12 00:00:00 NR 11.1000 161.100 main 1902 1890 O_____________ jtwc_wp WP291990 11.1000 161.100 20 -1 4 278
1990309N08167 1990 111 WP MM PAGE 1990-11-12 03:00:00 NR 11.1500 160.908 main 1890 1888 P_____________ WP291990 11.1500 160.908 20 -1 4 284
1990309N08167 1990 111 WP MM PAGE 1990-11-12 06:00:00 NR 11.2000 160.700 main 1888 1877 O_____________ jtwc_wp WP291990 11.2000 160.700 20 -1 5 277
1990309N08167 1990 111 WP MM PAGE 1990-11-12 09:00:00 NR 11.2075 160.450 main 1871 1859 P_____________ WP291990 11.2075 160.450 20 -1 5 270
1990309N08167 1990 111 WP MM PAGE 1990-11-12 12:00:00 NR 11.2000 160.200 main 1859 1848 O_____________ jtwc_wp WP291990 11.2000 160.200 20 -1 4 269
1990309N08167 1990 111 WP MM PAGE 1990-11-12 15:00:00 NR 11.2000 160.000 main 1848 1837 P_____________ WP291990 11.2000 160.000 20 -1 4 270
1990309N08167 1990 111 WP MM PAGE 1990-11-12 18:00:00 NR 11.2000 159.800 main 1837 1826 O_____________ jtwc_wp WP291990 11.2000 159.800 20 -1 4 269
1990309N08167 1990 111 WP MM PAGE 1990-11-12 21:00:00 NR 11.1925 159.557 main 1826 1810 P_____________ WP291990 11.1925 159.557 20 -1 5 270
1990309N08167 1990 111 WP MM PAGE 1990-11-13 00:00:00 NR 11.2000 159.300 main 1810 1799 O_____________ jtwc_wp WP291990 11.2000 159.300 20 -1 5 277
1990309N08167 1990 111 WP MM PAGE 1990-11-13 03:00:00 NR 11.2500 159.050 main 1799 1794 P_____________ WP291990 11.2500 159.050 20 -1 5 282
1990309N08167 1990 111 WP MM PAGE 1990-11-13 06:00:00 NR 11.3000 158.800 main 1794 1784 O_____________ jtwc_wp WP291990 11.3000 158.800 20 -1 5 277
1990309N08167 1990 111 WP MM PAGE 1990-11-13 09:00:00 NR 11.3075 158.550 main 1784 1769 P_____________ WP291990 11.3075 158.550 20 -1 5 270
1990309N08167 1990 111 WP MM PAGE 1990-11-13 12:00:00 NR 11.3000 158.300 main 1769 1759 O_____________ jtwc_wp WP291990 11.3000 158.300 20 -1 5 269
1990309N08167 1990 111 WP MM PAGE 1990-11-13 15:00:00 NR 11.3000 158.050 main 1759 1744 P_____________ WP291990 11.3000 158.050 20 -1 5 270
1990309N08167 1990 111 WP MM PAGE 1990-11-13 18:00:00 NR 11.3000 157.800 main 1744 1735 O_____________ jtwc_wp WP291990 11.3000 157.800 20 -1 5 270
1990309N08167 1990 111 WP MM PAGE 1990-11-13 21:00:00 NR 11.3000 157.550 main 1735 1721 P_____________ WP291990 11.3000 157.550 20 -1 5 270
1990309N08167 1990 111 WP MM PAGE 1990-11-14 00:00:00 NR 11.3000 157.300 main 1721 1712 O_____________ jtwc_wp WP291990 11.3000 157.300 20 -1 5 270
1990309N08167 1990 111 WP MM PAGE 1990-11-14 03:00:00 NR 11.3000 157.050 main 1712 1699 P_____________ WP291990 11.3000 157.050 20 -1 5 270
1990309N08167 1990 111 WP MM PAGE 1990-11-14 06:00:00 NR 11.3000 156.800 main 1699 1690 O_____________ jtwc_wp WP291990 11.3000 156.800 20 -1 5 270
1990309N08167 1990 111 WP MM PAGE 1990-11-14 09:00:00 NR 11.3000 156.550 main 1690 1678 P_____________ WP291990 11.3000 156.550 20 -1 5 270
1990309N08167 1990 111 WP MM PAGE 1990-11-14 12:00:00 NR 11.3000 156.300 main 1678 1670 O_____________ jtwc_wp WP291990 11.3000 156.300 20 -1 5 269
1990309N08167 1990 111 WP MM PAGE 1990-11-14 15:00:00 NR 11.2925 156.042 main 1667 1659 P_____________ WP291990 11.2925 156.042 20 -1 5 270
1990309N08167 1990 111 WP MM PAGE 1990-11-14 18:00:00 NR 11.3000 155.800 main 1659 1652 O_____________ jtwc_wp WP291990 11.3000 155.800 20 -1 4 277
1990309N08167 1990 111 WP MM PAGE 1990-11-14 21:00:00 NR 11.3500 155.593 main 1652 1652 P_____________ WP291990 11.3500 155.593 20 -1 4 284
1990309N08167 1990 111 WP MM PAGE 1990-11-15 00:00:00 NR 11.4000 155.400 main 1656 1650 O_____________ jtwc_wp WP291990 11.4000 155.400 20 -1 4 278
1990309N08167 1990 111 WP MM PAGE 1990-11-15 03:00:00 NR 11.4075 155.200 main 1650 1643 P_____________ WP291990 11.4075 155.200 20 -1 4 270
1990309N08167 1990 111 WP MM PAGE 1990-11-15 06:00:00 NR 11.4000 155.000 main 1643 1637 O_____________ jtwc_wp WP291990 11.4000 155.000 20 -1 4 269
1990309N08167 1990 111 WP MM PAGE 1990-11-15 09:00:00 NR 11.4000 154.800 main 1637 1632 P_____________ WP291990 11.4000 154.800 20 -1 4 270
1990309N08167 1990 111 WP MM PAGE 1990-11-15 12:00:00 NR 11.4000 154.600 main 1632 1626 O_____________ jtwc_wp WP291990 11.4000 154.600 20 -1 4 270
1990309N08167 1990 111 WP MM PAGE 1990-11-15 15:00:00 NR 11.4000 154.400 main 1626 1621 P_____________ WP291990 11.4000 154.400 20 -1 4 270
1990309N08167 1990 111 WP MM PAGE 1990-11-15 18:00:00 NR 11.4000 154.200 main 1621 1616 O_____________ jtwc_wp WP291990 11.4000 154.200 20 -1 4 270
1990309N08167 1990 111 WP MM PAGE 1990-11-15 21:00:00 NR 11.4000 153.993 main 1616 1612 P_____________ WP291990 11.4000 153.993 20 -1 4 270
1990309N08167 1990 111 WP MM PAGE 1990-11-16 00:00:00 NR 11.4000 153.800 main 1612 1609 O_____________ jtwc_wp WP291990 11.4000 153.800 20 -1 3 269
1990309N08167 1990 111 WP MM PAGE 1990-11-16 03:00:00 NR 11.3925 153.657 main 1609 1605 P_____________ WP291990 11.3925 153.657 22 -1 3 270
1990309N08167 1990 111 WP MM PAGE 1990-11-16 06:00:00 NR 11.4000 153.500 main 1605 1602 O_____________ jtwc_wp WP291990 11.4000 153.500 25 -1 4 279
1990309N08167 1990 111 WP MM PAGE 1990-11-16 09:00:00 NR 11.4575 153.258 main 1613 1607 P_____________ WP291990 11.4575 153.258 25 -1 5 282
1990309N08167 1990 111 WP MM PAGE 1990-11-16 12:00:00 NR 11.5000 153.000 main 1607 1604 O_____________ jtwc_wp WP291990 11.5000 153.000 25 -1 5 271
1990309N08167 1990 111 WP MM PAGE 1990-11-16 15:00:00 NR 11.4650 152.785 main 1604 1591 P_____________ WP291990 11.4650 152.785 25 -1 4 256
1990309N08167 1990 111 WP MM PAGE 1990-11-16 18:00:00 NR 11.4000 152.600 main 1591 1589 O_____________ jtwc_wp WP291990 11.4000 152.600 25 -1 3 253
1990309N08167 1990 111 WP MM PAGE 1990-11-16 21:00:00 NR 11.3650 152.458 main 1589 1576 P_____________ WP291990 11.3650 152.458 25 -1 3 251
1990309N08167 1990 111 WP MM PAGE 1990-11-17 00:00:00 NR 11.3000 152.300 main 1576 1563 O_____________ jtwc_wp WP291990 11.3000 152.300 25 -1 4 244
1990309N08167 1990 111 WP MM PAGE 1990-11-17 03:00:00 NR 11.1800 152.080 main 1563 1538 P_____________ WP291990 11.1800 152.080 25 -1 6 239
1990309N08167 1990 111 WP MM PAGE 1990-11-17 06:00:00 NR 11.0000 151.800 main 1538 1514 O_____________ jtwc_wp WP291990 11.0000 151.800 25 -1 7 233
1990309N08167 1990 111 WP MM PAGE 1990-11-17 09:00:00 NR 10.7648 151.510 main 1514 1470 P_____________ WP291990 10.7648 151.510 25 -1 9 234
1990309N08167 1990 111 WP MM PAGE 1990-11-17 12:00:00 NR 10.5000 151.100 main 1470 1433 O_____________ jtwc_wp WP291990 10.5000 151.100 25 -1 11 242
1990309N08167 1990 111 WP MM PAGE 1990-11-17 15:00:00 NR 10.2499 150.518 main 1420 1381 P_____________ WP291990 10.2499 150.518 25 -1 14 249
1990309N08167 1990 111 WP MM PAGE 1990-11-17 18:00:00 NR 10.0000 149.800 main 1381 1345 O_____________ jtwc_wp WP291990 10.0000 149.800 25 -1 16 252
1990309N08167 1990 111 WP MM PAGE 1990-11-17 21:00:00 NR 9.75765 148.993 main 1345 1302 P_____________ WP291990 9.75765 148.993 25 -1 17 252
1990309N08167 1990 111 WP MM PAGE 1990-11-18 00:00:00 NR 9.50000 148.200 main 1302 1266 O_____________ jtwc_wp WP291990 9.50000 148.200 25 -1 16 249
1990309N08167 1990 111 WP MM PAGE 1990-11-18 03:00:00 NR 9.19244 147.518 main 1266 1232 P_____________ WP291990 9.19244 147.518 25 -1 13 243
1990309N08167 1990 111 WP MM PAGE 1990-11-18 06:00:00 NR 8.90000 147.000 main 1232 1210 O_____________ jtwc_wp WP291990 8.90000 147.000 25 -1 10 237
1990309N08167 1990 111 WP MM PAGE 1990-11-18 09:00:00 NR 8.66982 146.705 main 1210 1187 P_____________ WP291990 8.66982 146.705 25 -1 6 231
1990309N08167 1990 111 WP MM PAGE 1990-11-18 12:00:00 NR 8.50000 146.500 main 1187 1176 O_____________ jtwc_wp WP291990 8.50000 146.500 25 -1 6 237
1990309N08167 1990 111 WP MM PAGE 1990-11-18 15:00:00 NR 8.36243 146.230 main 1177 1166 P_____________ WP291990 8.36243 146.230 25 -1 6 251
1990309N08167 1990 111 WP MM PAGE 1990-11-18 18:00:00 NR 8.30000 145.900 main 1167 1167 O_____________ jtwc_wp WP291990 8.30000 145.900 25 -1 7 269
1990309N08167 1990 111 WP MM PAGE 1990-11-18 21:00:00 NR 8.34999 145.480 main 1171 1171 P_____________ WP291990 8.34999 145.480 27 -1 9 276
1990309N08167 1990 111 WP MM PAGE 1990-11-19 00:00:00 NR 8.40000 145.000 main 1189 1186 O_____________ jtwc_wp WP291990 8.40000 145.000 30 -1 10 269
1990309N08167 1990 111 WP MM PAGE 1990-11-19 03:00:00 NR 8.33006 144.477 main 1188 1187 P_____________ WP291990 8.33006 144.477 30 -1 10 259
1990309N08167 1990 111 WP MM PAGE 1990-11-19 06:00:00 NR 8.20000 144.000 main 1189 1179 O_____________ jtwc_wp WP291990 8.20000 144.000 30 -1 9 251
1990309N08167 1990 111 WP MM PAGE 1990-11-19 09:00:00 NR 8.03495 143.632 main 1179 1172 P_____________ WP291990 8.03495 143.632 27 -1 7 243
1990309N08167 1990 111 WP MM PAGE 1990-11-19 12:00:00 NR 7.90000 143.400 main 1175 1175 O_____________ jtwc_wp WP291990 7.90000 143.400 25 -1 3 243
1990309N08167 1990 111 WP MM PAGE 1990-11-19 15:00:00 NR 7.88495 143.328 main 1178 1178 P_____________ WP291990 7.88495 143.328 25 -1 1 270
1990309N08167 1990 111 WP MM PAGE 1990-11-19 18:00:00 NR 7.90000 143.300 main 1178 1178 O_____________ jtwc_wp WP291990 7.90000 143.300 25 -1 2 261
1990309N08167 1990 111 WP MM PAGE 1990-11-19 21:00:00 NR 7.85751 143.158 main 1182 1175 P_____________ WP291990 7.85751 143.158 27 -1 3 251
1990309N08167 1990 111 WP MM PAGE 1990-11-20 00:00:00 NR 7.80000 143.000 main 1176 1172 O_____________ jtwc_wp WP291990 7.80000 143.000 30 -1 3 250
1990309N08167 1990 111 WP MM PAGE 1990-11-20 03:00:00 NR 7.76499 142.893 main 1172 1157 P_____________ WP291990 7.76499 142.893 30 -1 2 243
1990309N08167 1990 111 WP MM PAGE 1990-11-20 06:00:00 NR 7.70000 142.800 main 1157 1138 O_____________ jtwc_wp WP291990 7.70000 142.800 30 -1 3 230
1990309N08167 1990 111 WP MM PAGE 1990-11-20 09:00:00 NR 7.56499 142.655 main 1143 1132 P_____________ WP291990 7.56499 142.655 30 -1 5 127
1990309N08167 1990 111 WP MM PAGE 1990-11-20 12:00:00 TS 7.42000 143.180 main 1129 1118 O_O___________ jtwc_wp WP291990 7.40000 142.600 30 -1 7.50000 145.500 0 19 1004 9 101
1990309N08167 1990 111 WP MM PAGE 1990-11-20 15:00:00 TS 7.39745 143.561 main 1115 1109 P_P___________ WP291990 7.22742 142.710 30 -1 7.73750 145.262 0 21 1003 7 84
1990309N08167 1990 111 WP MM PAGE 1990-11-20 18:00:00 TS 7.48571 143.857 main 1116 1116 O_O___________ jtwc_wp WP291990 7.10000 143.000 30 -1 8.00000 145.000 1 23 1002 6 63
1990309N08167 1990 111 WP MM PAGE 1990-11-20 21:00:00 TS 7.66756 144.088 main 1132 1127 P_P___________ WP291990 7.04758 143.463 27 -1 8.28753 144.713 1 26 1001 6 61
1990309N08167 1990 111 WP MM PAGE 1990-11-21 00:00:00 TS 7.76667 144.378 1000 tokyo main 1135 1131 OOO___________ jtwc_wp WP291990 7.10000 144.000 25 -1 7.50000 145.400 2 1000 0 0 0 8.50000 144.500 1 29 1000 6 70
1990309N08167 1990 111 WP MM PAGE 1990-11-21 03:00:00 TS 7.86851 144.656 main 1140 1138 PPP___________ WP291990 7.21754 144.502 25 -1 7.83254 145.353 2 1000 0 0 8.53747 144.462 1 29 1000 6 59
1990309N08167 1990 111 WP MM PAGE 1990-11-21 06:00:00 TS 8.05455 144.864 1000 tokyo main 1158 1158 OOO___________ jtwc_wp WP291990 7.50000 144.900 25 -1 8.20000 145.300 2 1000 0 0 0 8.50000 144.500 1 29 1000 6 34
1990309N08167 1990 111 WP MM PAGE 1990-11-21 09:00:00 TS 8.33577 144.970 main 1178 1178 PPP___________ WP291990 7.98243 145.155 25 -1 8.61489 145.217 2 1000 0 0 8.40998 144.537 1 29 1000 7 3
1990309N08167 1990 111 WP MM PAGE 1990-11-21 12:00:00 TS 8.70000 144.900 1000 tokyo main 1224 1224 OOO___________ jtwc_wp WP291990 8.60000 145.200 25 -1 9.00000 145.000 2 1000 0 0 0 8.50000 144.500 1 29 1000 9 338
1990309N08167 1990 111 WP MM PAGE 1990-11-21 15:00:00 TS 9.19005 144.622 main 1285 1285 PPP___________ WP291990 9.24992 145.048 25 -1 9.28024 144.508 2 1000 0 0 9.03999 144.310 1 29 1000 12 327
1990309N08167 1990 111 WP MM PAGE 1990-11-21 18:00:00 TS 9.70000 144.233 1000 tokyo main 1348 1348 OOO___________ jtwc_wp WP291990 9.90000 144.700 25 -1 9.50000 144.000 2 1000 0 0 0 9.70000 144.000 1 29 1000 12 321
1990309N08167 1990 111 WP MM PAGE 1990-11-21 21:00:00 TS 10.1158 143.869 main 1399 1399 PPP___________ WP291990 10.5025 144.253 30 -1 9.71488 143.747 2 1000 0 0 10.1301 143.607 1 29 1000 11 317
1990309N08167 1990 111 WP MM PAGE 1990-11-22 00:00:00 TS 10.4667 143.500 1000 tokyo main 1452 1452 OOO___________ jtwc_wp WP291990 11.0000 143.700 35 0 9.90000 143.600 2 1000 0 0 0 10.5000 143.200 1 29 1000 10 313
1990309N08167 1990 111 WP MM PAGE 1990-11-22 03:00:00 TS 10.7875 143.140 main 1491 1491 PPP___________ WP291990 11.3752 143.063 37 0 10.0425 143.450 2 999 0 0 10.9448 142.907 1 29 1000 9 313
1990309N08167 1990 111 WP MM PAGE 1990-11-22 06:00:00 TS 11.1000 142.800 35 998 tokyo main 1511 1507 OOOO__________ jtwc_wp WP291990 11.6000 142.500 40 0 10.2000 143.300 3 35 998 0 9 60 60 0 11.3000 142.600 1 29 1000 11.9000 142.800 TD 25 995 9 306
1990309N08167 1990 111 WP MM PAGE 1990-11-22 09:00:00 TS 11.2886 142.443 main 1518 1514 PPPP__________ WP291990 11.6873 142.205 40 0 10.4124 143.145 3 37 997 0 9 60 60 11.4601 142.142 1 33 997 11.9004 142.120 TD 25 995 8 294
1990309N08167 1990 111 WP MM PAGE 1990-11-22 12:00:00 TS 11.4200 142.060 40 996 tokyo main 1519 1516 OOOO__________ jtwc_wp WP291990 11.7000 142.000 40 0 10.7000 142.900 3 40 996 0 9 60 60 0 11.5000 141.700 2 38 995 11.9000 141.500 TD 25 995 8 289
1990309N08167 1990 111 WP MM PAGE 1990-11-22 15:00:00 TS 11.5587 141.648 main 1525 1516 PPPP__________ WP291990 11.7500 141.700 40 0 11.0776 142.480 3 42 994 0 9 117 117 11.5074 141.420 2 38 992 11.8999 140.990 TD 25 995 8 289
1990309N08167 1990 111 WP MM PAGE 1990-11-22 18:00:00 TS 11.6750 141.300 45 992 tokyo main 1522 1513 OOOO__________ jtwc_wp WP291990 11.8000 141.400 40 0 11.5000 142.000 3 45 992 0 9 175 175 0 11.5000 141.200 2 38 990 11.9000 140.600 TD 25 995 7 291
1990309N08167 1990 111 WP MM PAGE 1990-11-22 21:00:00 TS 11.8056 140.994 main 1520 1516 PPPP__________ WP291990 11.8574 141.165 40 0 11.9449 141.585 3 47 991 0 9 237 212 11.5200 140.913 2 38 990 11.8999 140.313 TD 27 992 6 294
1990309N08167 1990 111 WP MM PAGE 1990-11-23 00:00:00 TS 11.9250 140.725 50 990 tokyo main 1518 1518 OOOO__________ jtwc_wp WP291990 11.9000 140.900 40 0 12.3000 141.200 4 50 990 0 8 300 250 0 11.6000 140.700 2 38 990 11.9000 140.100 TD 30 990 5 293
1990309N08167 1990 111 WP MM PAGE 1990-11-23 03:00:00 TS 12.0149 140.495 main 1521 1517 PPPP__________ WP291990 11.9076 140.507 40 0 12.4600 140.827 4 52 987 0 8 300 250 11.7923 140.752 2 43 987 11.9000 139.893 TD 32 987 5 288
1990309N08167 1990 111 WP MM PAGE 1990-11-23 06:00:00 TS 12.0750 140.250 55 985 tokyo main 1524 1510 OOOO__________ jtwc_wp WP291990 11.9000 140.100 40 0 12.5000 140.500 4 55 985 9 30 30 8 300 250 0 12.0000 140.700 3 48 985 11.9000 139.700 TS 35 985 6 280
1990309N08167 1990 111 WP MM PAGE 1990-11-23 09:00:00 TS 12.1169 139.928 main 1510 1500 PPPP__________ WP291990 11.8999 139.785 42 0 12.5373 140.280 4 55 985 9 30 30 8 300 250 12.1305 140.145 3 48 985 11.9000 139.500 TS 37 982 7 274
1990309N08167 1990 111 WP MM PAGE 1990-11-23 12:00:00 TS 12.1250 139.575 55 985 tokyo main 1500 1468 OOOO__________ jtwc_wp WP291990 11.9000 139.500 45 0 12.5000 140.000 4 55 985 9 30 30 8 300 250 0 12.2000 139.500 3 48 985 11.9000 139.300 TS 40 980 7 269
1990309N08167 1990 111 WP MM PAGE 1990-11-23 15:00:00 TS 12.1025 139.243 main 1458 1426 PPPP__________ WP291990 11.8999 139.208 47 0 12.3728 139.465 4 55 982 9 40 40 8 300 275 12.2372 139.170 3 53 982 11.8999 139.130 TS 45 977 7 264
1990309N08167 1990 111 WP MM PAGE 1990-11-23 18:00:00 TS 12.0500 138.900 55 980 tokyo main 1426 1391 OOOO__________ jtwc_wp WP291990 11.9000 138.900 50 0 12.2000 138.900 4 55 980 9 50 50 9 300 300 0 12.2000 138.900 3 58 980 11.9000 138.900 STS 50 975 7 259
1990309N08167 1990 111 WP MM PAGE 1990-11-23 21:00:00 TS 11.9712 138.532 main 1381 1346 PPPP__________ WP291990 11.9000 138.565 55 0 12.0273 138.528 4 57 977 9 50 50 9 300 300 12.0500 138.507 3 63 980 11.9075 138.530 STS 50 975 8 258
1990309N08167 1990 111 WP MM PAGE 1990-11-24 00:00:00 TS 11.9000 138.150 60 975 tokyo main 1346 1304 OOOO__________ jtwc_wp WP291990 11.9000 138.200 60 0 11.9000 138.200 4 60 975 9 50 50 9 300 300 0 11.9000 138.100 4 68 980 11.9000 138.100 STS 50 975 7 262
1990309N08167 1990 111 WP MM PAGE 1990-11-24 03:00:00 TS 11.8742 137.783 main 1304 1261 PPPP__________ WP291990 11.8999 137.822 65 1 11.8773 137.838 4 60 975 9 62 62 9 325 325 11.8698 137.765 4 68 975 11.8499 137.707 STS 52 972 8 268
1990309N08167 1990 111 WP MM PAGE 1990-11-24 06:00:00 TS 11.8750 137.375 60 975 tokyo main 1261 1208 OOOO__________ jtwc_wp WP291990 11.9000 137.400 70 1 11.9000 137.400 4 60 975 9 75 75 9 350 350 0 11.9000 137.400 4 68 970 11.8000 137.300 STS 55 970 9 271
1990309N08167 1990 111 WP MM PAGE 1990-11-24 09:00:00 TS 11.8894 136.883 main 1208 1155 PPPP__________ WP291990 11.9075 136.915 70 1 11.9001 136.815 4 65 970 9 87 87 9 350 350 11.9499 136.945 4 68 970 11.8000 136.858 STS 60 967 10 271
1990309N08167 1990 111 WP MM PAGE 1990-11-24 12:00:00 TS 11.9000 136.350 70 965 tokyo main 1145 1092 OOOO__________ jtwc_wp WP291990 11.9000 136.400 70 1 11.9000 136.200 5 70 965 9 100 100 9 350 350 0 12.0000 136.400 4 68 970 11.8000 136.400 T 65 965 10 269
1990309N08167 1990 111 WP MM PAGE 1990-11-24 15:00:00 TS 11.8787 135.819 main 1092 1040 PPPP__________ WP291990 11.8499 135.900 72 1 11.8999 135.678 5 70 965 9 100 100 9 350 350 12.0152 135.735 4 72 967 11.7499 135.965 T 67 962 10 267
1990309N08167 1990 111 WP MM PAGE 1990-11-24 18:00:00 TS 11.8500 135.300 70 965 tokyo main 1040 984 OOOO__________ jtwc_wp WP291990 11.8000 135.400 75 1 11.9000 135.200 5 70 965 9 100 100 9 350 350 0 12.0000 135.100 4 77 965 11.7000 135.500 T 70 960 10 267
1990309N08167 1990 111 WP MM PAGE 1990-11-24 21:00:00 TS 11.8355 134.816 main 984 942 PPPP__________ WP291990 11.7924 134.900 80 1 11.8999 134.743 5 72 962 9 100 100 9 350 350 11.9572 134.663 4 77 965 11.6925 134.958 T 72 957 9 268
1990309N08167 1990 111 WP MM PAGE 1990-11-25 00:00:00 TS 11.8250 134.350 75 960 tokyo main 942 888 OOOO__________ jtwc_wp WP291990 11.8000 134.400 85 2 11.9000 134.300 5 75 960 9 100 100 9 350 350 0 11.9000 134.300 4 77 965 11.7000 134.400 T 75 955 9 268
1990309N08167 1990 111 WP MM PAGE 1990-11-25 03:00:00 TS 11.7993 133.884 main 888 844 PPPP__________ WP291990 11.7925 133.892 92 2 11.8924 133.850 5 77 955 9 100 100 9 350 350 11.8274 133.907 4 82 962 11.6849 133.885 T 80 952 9 268
1990309N08167 1990 111 WP MM PAGE 1990-11-25 06:00:00 TS 11.8000 133.425 80 950 tokyo main 833 790 OOOO__________ jtwc_wp WP291990 11.8000 133.400 100 3 11.9000 133.400 5 80 950 9 100 100 9 350 350 0 11.8000 133.500 5 87 960 11.7000 133.400 ST 85 950 9 274
1990309N08167 1990 111 WP MM PAGE 1990-11-25 09:00:00 TS 11.8562 132.969 main 791 737 PPPP__________ WP291990 11.8349 132.942 107 3 11.9350 132.942 5 82 945 9 112 112 9 350 350 11.8700 133.058 5 87 957 11.7849 132.935 ST 90 945 9 280
1990309N08167 1990 111 WP MM PAGE 1990-11-25 12:00:00 TS 11.9500 132.525 85 940 tokyo main 739 696 OOOO__________ jtwc_wp WP291990 11.9000 132.500 115 4 12.0000 132.500 5 85 940 9 125 125 9 350 350 0 12.0000 132.600 5 87 955 11.9000 132.500 ST 95 940 9 283
1990309N08167 1990 111 WP MM PAGE 1990-11-25 15:00:00 TS 12.0606 132.094 main 697 656 PPPP__________ WP291990 11.9925 132.043 115 4 12.0924 132.092 5 87 937 9 125 125 9 350 350 12.1575 132.143 5 92 950 11.9999 132.100 ST 97 935 9 285
1990309N08167 1990 111 WP MM PAGE 1990-11-25 18:00:00 TS 12.1750 131.675 90 935 tokyo main 656 614 OOOO__________ jtwc_wp WP291990 12.1000 131.600 115 4 12.2000 131.700 5 90 935 9 125 125 9 350 350 0 12.3000 131.700 5 97 945 12.1000 131.700 SuperT 100 930 8 284
1990309N08167 1990 111 WP MM PAGE 1990-11-25 21:00:00 TS 12.2587 131.264 main 616 574 PPPP__________ WP291990 12.1924 131.200 117 4 12.2999 131.307 5 92 932 9 125 125 9 350 350 12.3574 131.300 5 101 940 12.1850 131.250 SuperT 105 925 8 282
1990309N08167 1990 111 WP MM PAGE 1990-11-26 00:00:00 TS 12.3500 130.850 95 930 tokyo main 577 528 OOOO__________ jtwc_wp WP291990 12.3000 130.800 120 4 12.4000 130.900 5 95 930 9 125 125 9 350 350 0 12.4000 130.900 6 106 935 12.3000 130.800 SuperT 110 920 9 284
1990309N08167 1990 111 WP MM PAGE 1990-11-26 03:00:00 TS 12.4650 130.412 main 528 491 PPPP__________ WP291990 12.4275 130.357 125 4 12.4775 130.450 5 97 925 9 137 137 9 350 350 12.4700 130.450 6 106 932 12.4849 130.393 SuperT 115 915 9 288
1990309N08167 1990 111 WP MM PAGE 1990-11-26 06:00:00 TS 12.6250 129.975 100 920 tokyo main 491 450 OOOO__________ jtwc_wp WP291990 12.6000 129.900 130 4 12.6000 130.000 5 100 920 9 150 150 9 350 350 0 12.6000 130.000 6 106 930 12.7000 130.000 SuperT 120 910 9 294
1990309N08167 1990 111 WP MM PAGE 1990-11-26 09:00:00 TS 12.8324 129.564 main 450 411 PPPP__________ WP291990 12.8275 129.442 135 4 12.8049 129.600 5 100 917 9 150 150 9 350 350 12.8124 129.600 6 106 930 12.8849 129.615 SuperT 120 910 9 301
1990309N08167 1990 111 WP MM PAGE 1990-11-26 12:00:00 TS 13.1000 129.150 100 915 tokyo main 414 372 OOOO__________ jtwc_wp WP291990 13.1000 129.000 140 5 13.1000 129.200 5 100 915 9 150 150 9 350 350 0 13.1000 129.200 6 106 930 13.1000 129.200 SuperT 120 910 10 305
1990309N08167 1990 111 WP MM PAGE 1990-11-26 15:00:00 TS 13.4150 128.706 main 372 346 PPPP__________ WP291990 13.3774 128.600 140 5 13.4850 128.758 5 100 915 9 150 150 9 350 350 13.4275 128.757 6 111 922 13.3700 128.707 SuperT 117 912 11 308
1990309N08167 1990 111 WP MM PAGE 1990-11-26 18:00:00 TS 13.7750 128.250 100 915 tokyo main 352 327 OOOO__________ jtwc_wp WP291990 13.7000 128.200 140 5 13.9000 128.300 5 100 915 9 150 150 9 350 350 0 13.8000 128.300 6 116 915 13.7000 128.200 SuperT 115 915 12 309
1990309N08167 1990 111 WP MM PAGE 1990-11-26 21:00:00 TS 14.1456 127.783 main 327 326 PPPP__________ WP291990 14.0775 127.743 140 5 14.2425 127.835 5 102 912 9 150 150 9 350 350 14.1850 127.835 6 116 915 14.0775 127.720 SuperT 112 917 12 312
1990309N08167 1990 111 WP MM PAGE 1990-11-27 00:00:00 TS 14.5500 127.350 105 910 tokyo main 332 301 OOOO__________ jtwc_wp WP291990 14.5000 127.300 140 5 14.6000 127.400 5 105 910 9 150 150 9 350 350 0 14.6000 127.400 6 116 915 14.5000 127.300 SuperT 110 920 12 317
1990309N08167 1990 111 WP MM PAGE 1990-11-27 03:00:00 TS 14.9887 126.982 main 305 293 PPPP__________ WP291990 14.9424 126.920 140 5 15.0349 127.020 5 105 910 9 150 150 9 450 325 15.0424 127.020 6 121 912 14.9349 126.970 SuperT 107 925 11 324
1990309N08167 1990 111 WP MM PAGE 1990-11-27 06:00:00 TS 15.4500 126.675 105 910 tokyo main 305 296 OOOO__________ jtwc_wp WP291990 15.4000 126.600 140 5 15.5000 126.700 5 105 910 9 150 150 8 550 300 0 15.5000 126.700 6 126 910 15.4000 126.700 SuperT 105 930 11 328
1990309N08167 1990 111 WP MM PAGE 1990-11-27 09:00:00 TS 15.9106 126.391 main 310 310 PPPP__________ WP291990 15.8425 126.305 135 4 15.9500 126.420 5 105 910 9 150 150 8 525 300 15.9500 126.420 6 126 910 15.9000 126.420 SuperT 102 932 10 332
1990309N08167 1990 111 WP MM PAGE 1990-11-27 12:00:00 TS 16.3750 126.175 105 910 tokyo main 337 337 OOOO__________ jtwc_wp WP291990 16.3000 126.100 130 4 16.4000 126.200 5 105 910 9 150 150 8 500 300 0 16.4000 126.200 6 126 910 16.4000 126.200 SuperT 100 935 10 338
1990309N08167 1990 111 WP MM PAGE 1990-11-27 15:00:00 TS 16.8262 126.016 main 362 362 PPPP__________ WP291990 16.7924 126.005 127 4 16.8350 125.998 5 102 912 9 150 150 8 500 300 16.8350 126.005 6 126 910 16.8425 126.055 SuperT 95 937 10 347
1990309N08167 1990 111 WP MM PAGE 1990-11-27 18:00:00 TS 17.3000 125.950 100 915 tokyo main 373 362 OOOO__________ jtwc_wp WP291990 17.3000 126.000 125 4 17.3000 125.900 5 100 915 9 150 150 8 500 300 0 17.3000 125.900 6 126 910 17.3000 126.000 ST 90 940 10 358
1990309N08167 1990 111 WP MM PAGE 1990-11-27 21:00:00 TS 17.8225 125.966 main 382 382 PPPP__________ WP291990 17.7849 126.005 122 4 17.8350 125.955 5 95 922 9 150 150 8 500 325 17.8350 125.898 6 121 915 17.8350 126.005 ST 87 942 11 6
1990309N08167 1990 111 WP MM PAGE 1990-11-28 00:00:00 TS 18.3750 126.075 90 930 tokyo main 400 400 OOOO__________ jtwc_wp WP291990 18.3000 126.100 120 4 18.4000 126.100 5 90 930 9 150 150 8 500 350 0 18.4000 126.000 6 116 920 18.4000 126.100 ST 85 945 11 13
1990309N08167 1990 111 WP MM PAGE 1990-11-28 03:00:00 TS 18.9093 126.227 main 414 414 PPPP__________ WP291990 18.8700 126.305 117 4 18.9274 126.206 5 90 932 9 137 137 8 450 325 18.9199 126.148 6 111 925 18.9199 126.248 ST 82 947 12 19
1990309N08167 1990 111 WP MM PAGE 1990-11-28 06:00:00 TS 19.5000 126.475 90 935 tokyo main 458 458 OOOO__________ jtwc_wp WP291990 19.5000 126.600 115 4 19.5000 126.400 5 90 935 9 125 125 8 400 300 0 19.5000 126.400 6 106 930 19.5000 126.500 T 80 950 14 23
1990309N08167 1990 111 WP MM PAGE 1990-11-28 09:00:00 TS 20.1986 126.808 main 513 513 PPPP__________ WP291990 20.1773 126.906 112 3 20.1774 126.740 5 87 937 9 125 125 8 400 300 20.2124 126.740 6 101 935 20.2274 126.848 T 77 950 16 27
1990309N08167 1990 111 WP MM PAGE 1990-11-28 12:00:00 TS 20.9500 127.250 85 940 tokyo main 598 598 OOOO__________ jtwc_wp WP291990 20.9000 127.300 110 3 20.9000 127.200 5 85 940 9 125 125 8 400 300 0 21.0000 127.200 5 97 940 21.0000 127.300 T 75 950 17 31
1990309N08167 1990 111 WP MM PAGE 1990-11-28 15:00:00 TS 21.6761 127.772 main 676 673 PPPP__________ WP291990 21.6275 127.813 107 3 21.5925 127.728 5 85 942 9 125 125 8 400 300 21.7920 127.726 5 87 945 21.6924 127.821 T 70 952 18 35
1990309N08167 1990 111 WP MM PAGE 1990-11-28 18:00:00 TS 22.4250 128.375 85 945 tokyo main 702 699 OOOO__________ jtwc_wp WP291990 22.4000 128.400 105 3 22.3000 128.300 5 85 945 9 125 125 8 400 300 0 22.6000 128.400 4 77 950 22.4000 128.400 T 65 955 19 37
1990309N08167 1990 111 WP MM PAGE 1990-11-28 21:00:00 TS 23.2137 129.025 main 736 736 PPPP__________ WP291990 23.2272 128.978 102 3 23.0347 128.843 5 82 947 9 107 107 8 375 275 23.4308 129.299 4 72 955 23.1622 128.979 T 62 957 20 37
1990309N08167 1990 111 WP MM PAGE 1990-11-29 00:00:00 TS 24.0250 129.700 80 950 tokyo main 786 693 OOOO__________ jtwc_wp WP291990 24.1000 129.600 100 3 23.8000 129.400 5 80 950 9 90 90 8 350 250 0 24.2000 130.200 4 68 960 24.0000 129.600 STS 60 960 20 37
1990309N08167 1990 111 WP MM PAGE 1990-11-29 03:00:00 TS 24.7995 130.339 main 693 603 PPPP__________ WP291990 24.9923 130.278 95 2 24.5470 129.965 5 77 955 9 90 90 8 350 250 24.7466 130.841 4 63 965 24.9122 130.271 STS 57 962 20 36
1990309N08167 1990 111 WP MM PAGE 1990-11-29 06:00:00 TS 25.6500 131.000 75 960 tokyo main 592 500 OOOO__________ jtwc_wp WP291990 25.9000 131.000 90 2 25.4000 130.600 5 75 960 9 90 90 8 350 250 0 25.4000 131.400 3 58 970 25.9000 131.000 STS 55 965 23 34
1990309N08167 1990 111 WP MM PAGE 1990-11-29 09:00:00 TS 26.6774 131.735 main 489 407 PPPP__________ WP291990 26.7998 131.751 85 2 26.4625 131.363 5 72 962 9 90 90 8 350 250 26.5048 132.034 3 53 977 26.9424 131.793 STS 55 967 25 33
1990309N08167 1990 111 WP MM PAGE 1990-11-29 12:00:00 TS 27.7500 132.500 70 965 tokyo main 397 347 OOOO__________ jtwc_wp WP291990 27.7000 132.500 80 1 27.6000 132.200 5 70 965 9 90 90 8 350 250 0 27.7000 132.700 3 48 985 28.0000 132.600 STS 55 970 25 34
1990309N08167 1990 111 WP MM PAGE 1990-11-29 15:00:00 TS 28.7163 133.283 main 352 312 PPPP__________ WP291990 28.5773 133.231 77 1 28.6653 133.088 5 67 967 9 85 85 8 375 275 28.6000 133.417 3 48 985 29.0224 133.395 STS 55 970 23 34
1990309N08167 1990 111 WP MM PAGE 1990-11-29 18:00:00 TS 29.6750 134.000 65 970 tokyo main 312 269 OOOO__________ jtwc_wp WP291990 29.5000 133.900 75 1 29.7000 133.900 5 65 970 9 80 80 8 400 300 0 29.5000 134.100 3 48 985 30.0000 134.100 STS 55 970 23 30
1990309N08167 1990 111 WP MM PAGE 1990-11-29 21:00:00 TS 30.7088 134.580 main 269 183 PPPP__________ WP291990 30.5492 134.452 72 1 30.7143 134.519 5 65 970 9 75 75 8 400 300 30.6571 134.688 3 48 985 30.9145 134.662 STS 55 970 23 24
1990309N08167 1990 111 WP MM PAGE 1990-11-30 00:00:00 TS 31.7250 135.075 65 970 tokyo main 187 93 OOOO__________ jtwc_wp WP291990 31.6000 135.000 70 1 31.7000 135.000 5 65 970 9 70 70 8 400 300 0 31.8000 135.200 3 48 985 31.8000 135.100 STS 55 970 21 23
1990309N08167 1990 111 WP MM PAGE 1990-11-30 03:00:00 TS 32.6287 135.533 main 93 9 PPPP__________ WP291990 32.5219 135.650 67 1 32.6662 135.362 5 60 972 9 55 55 8 400 350 32.6423 135.689 3 48 985 32.6842 135.431 STS 50 972 20 24
1990309N08167 1990 111 WP MM PAGE 1990-11-30 06:00:00 TS 33.5200 136.040 55 975 tokyo main 9 0 OOOO__________ jtwc_wp WP291990 33.4000 136.400 65 1 33.6000 135.800 4 55 975 9 40 40 9 400 400 0 33.5000 136.100 3 48 985 33.6000 135.800 TS 45 975 21 27
1990309N08167 1990 111 WP MM PAGE 1990-11-30 09:00:00 MX 34.4770 136.661 980 tokyo main 0 0 POPP__________ WP291990 34.2847 137.257 57 0 34.5000 136.500 6 980 0 0 0 34.5943 136.368 3 43 987 34.5814 136.377 TS 40 977 24 26
1990309N08167 1990 111 WP MM PAGE 1990-11-30 12:00:00 ET 35.6750 137.333 984 tokyo main 0 0 OOOO__________ jtwc_wp WP291990 35.2000 138.200 50 0 36.0000 137.000 6 984 0 0 0 35.9000 136.700 9 38 990 35.6000 137.100 TS 35 980 29 29
1990309N08167 1990 111 WP MM PAGE 1990-11-30 15:00:00 ET 36.9764 138.348 main 0 0 PPP___________ WP291990 36.1711 139.259 47 0 37.5704 137.959 6 986 0 0 37.3991 137.302 9 33 994 TS 31 31
1990309N08167 1990 111 WP MM PAGE 1990-11-30 18:00:00 ET 38.3250 139.337 988 tokyo main 17 0 OOO___________ jtwc_wp WP291990 37.2000 140.200 45 0 39.0000 139.000 6 988 0 0 0 39.0000 138.100 9 29 998 28 27
1990309N08167 1990 111 WP MM PAGE 1990-11-30 21:00:00 ET 39.4760 139.942 main 14 0 PP____________ WP291990 38.2841 140.805 45 0 40.0720 139.511 6 988 0 0 9 25 16
1990309N08167 1990 111 WP MM PAGE 1990-12-01 00:00:00 ET 40.6800 140.240 988 tokyo main 0 0 OO____________ jtwc_wp WP291990 39.4000 141.200 45 0 41.0000 140.000 6 988 0 0 0 26 16
1990309N08167 1990 111 WP MM PAGE 1990-12-01 03:00:00 ET 42.0008 140.925 main 0 0 _P____________ WP291990 -1 42.0008 140.925 6 990 0 0 27 29
1990309N08167 1990 111 WP MM PAGE 1990-12-01 06:00:00 ET 43.0000 142.000 992 tokyo main 0 0 _O____________ -1 43.0000 142.000 6 992 0 0 0 25 37
1990309N08167 1990 111 WP MM PAGE 1990-12-01 09:00:00 ET 43.9991 143.003 main 0 0 _P____________ -1 43.9991 143.003 6 992 0 0 25 36
1990309N08167 1990 111 WP MM PAGE 1990-12-01 12:00:00 ET 45.0000 144.000 992 tokyo main 86 86 _O____________ -1 45.0000 144.000 6 992 0 0 0 24 35
1990309N08167 1990 111 WP MM PAGE 1990-12-01 15:00:00 ET 45.9991 145.004 main 117 117 _P____________ -1 45.9991 145.004 6 991 0 0 24 35
1990309N08167 1990 111 WP MM PAGE 1990-12-01 18:00:00 ET 47.0000 146.000 990 tokyo main 192 178 _O____________ -1 47.0000 146.000 6 990 0 0 0 24 34
1990309N08167 1990 111 WP MM PAGE 1990-12-01 21:00:00 ET 47.9991 147.004 main 181 181 _P____________ -1 47.9991 147.004 6 990 0 0 24 34
1990309N08167 1990 111 WP MM PAGE 1990-12-02 00:00:00 ET 49.0000 148.000 990 tokyo main 240 240 _O____________ -1 49.0000 148.000 6 990 0 0 0 24 32
1990309N08167 1990 111 WP MM PAGE 1990-12-02 03:00:00 ET 50.0740 148.999 main 336 336 _P____________ -1 50.0740 148.999 6 989 0 0 24 33
1990309N08167 1990 111 WP MM PAGE 1990-12-02 06:00:00 ET 51.0000 150.000 988 tokyo main 372 321 _O____________ -1 51.0000 150.000 6 988 0 0 0 20 41
1990309N08167 1990 111 WP MM PAGE 1990-12-02 09:00:00 ET 51.5755 151.080 main 320 289 _P____________ -1 51.5755 151.080 6 985 0 0 16 51
1990309N08167 1990 111 WP MM PAGE 1990-12-02 12:00:00 ET 52.0000 152.000 982 tokyo main 291 243 _O____________ -1 52.0000 152.000 6 982 0 0 0 13 45
1990309N08167 1990 111 WP MM PAGE 1990-12-02 15:00:00 ET 52.4985 152.579 main 243 207 _P____________ -1 52.4985 152.579 6 979 0 0 12 31
1990309N08167 1990 111 WP MM PAGE 1990-12-02 18:00:00 ET 53.0000 153.000 976 tokyo main 207 164 _O____________ -1 53.0000 153.000 6 976 0 0 0 12 27
1990309N08167 1990 111 WP MM PAGE 1990-12-02 21:00:00 ET 53.5748 153.499 main 162 123 _P____________ -1 53.5748 153.499 6 976 0 0 12 31
1990309N08167 1990 111 WP MM PAGE 1990-12-03 00:00:00 ET 54.0000 154.000 976 tokyo main 123 90 _O____________ -1 54.0000 154.000 6 976 0 0 0 8 50
1990309N08167 1990 111 WP MM PAGE 1990-12-03 03:00:00 ET 54.0748 154.503 main 90 58 _P____________ -1 54.0748 154.503 6 976 0 0 6 90
1990309N08167 1990 111 WP MM PAGE 1990-12-03 06:00:00 ET 54.0000 155.000 976 tokyo main 58 26 _O____________ -1 54.0000 155.000 6 976 0 0 0 6 100
1990309N08167 1990 111 WP MM PAGE 1990-12-03 09:00:00 ET 53.9754 155.499 main 26 0 _P____________ -1 53.9754 155.499 6 976 0 0 6 90
1990309N08167 1990 111 WP MM PAGE 1990-12-03 12:00:00 ET 54.0000 156.000 976 tokyo main 0 _O____________ -1 54.0000 156.000 6 976 0 0 0 6 85

デジタル台風データ・検索

IBTrACS Databaseについて

本データベースは、米国NOAAが公開する1842年以降の世界の熱帯低気圧のベストトラックデータアーカイブInternational Best Track Archive for Climate Stewardship (IBTrACS)を、ウェブで閲覧しやすい形式に変換したものです。

最終更新日:2021-11-26